sensor_id;sensor_type;location;lat;lon;timestamp;P1;durP1;ratioP1;P2;durP2;ratioP2
16705;SDS011;8469;60.136;15.180;2024-01-30T00:00:40;13.00;;;3.80;;
16705;SDS011;8469;60.136;15.180;2024-01-30T00:03:07;45.55;;;4.60;;
16705;SDS011;8469;60.136;15.180;2024-01-30T00:05:35;14.25;;;4.08;;
16705;SDS011;8469;60.136;15.180;2024-01-30T00:08:02;75.65;;;5.35;;
16705;SDS011;8469;60.136;15.180;2024-01-30T00:10:29;36.38;;;4.92;;
16705;SDS011;8469;60.136;15.180;2024-01-30T00:12:57;26.82;;;5.08;;
16705;SDS011;8469;60.136;15.180;2024-01-30T00:15:24;38.33;;;5.33;;
16705;SDS011;8469;60.136;15.180;2024-01-30T00:17:51;10.78;;;4.70;;
16705;SDS011;8469;60.136;15.180;2024-01-30T00:20:18;25.85;;;4.72;;
16705;SDS011;8469;60.136;15.180;2024-01-30T00:22:48;14.43;;;4.58;;
16705;SDS011;8469;60.136;15.180;2024-01-30T00:25:15;19.17;;;4.50;;
16705;SDS011;8469;60.136;15.180;2024-01-30T00:27:42;48.28;;;5.15;;
16705;SDS011;8469;60.136;15.180;2024-01-30T00:30:10;57.30;;;5.03;;
16705;SDS011;8469;60.136;15.180;2024-01-30T00:32:38;19.73;;;4.37;;
16705;SDS011;8469;60.136;15.180;2024-01-30T00:35:06;47.67;;;5.40;;
16705;SDS011;8469;60.136;15.180;2024-01-30T00:37:33;17.17;;;4.85;;
16705;SDS011;8469;60.136;15.180;2024-01-30T00:40:01;60.52;;;5.15;;
16705;SDS011;8469;60.136;15.180;2024-01-30T00:42:28;66.15;;;5.60;;
16705;SDS011;8469;60.136;15.180;2024-01-30T00:44:55;14.75;;;4.72;;
16705;SDS011;8469;60.136;15.180;2024-01-30T00:47:23;15.75;;;4.55;;
16705;SDS011;8469;60.136;15.180;2024-01-30T00:49:50;14.25;;;4.87;;
16705;SDS011;8469;60.136;15.180;2024-01-30T00:52:17;13.22;;;4.15;;
16705;SDS011;8469;60.136;15.180;2024-01-30T00:54:45;21.42;;;4.72;;
16705;SDS011;8469;60.136;15.180;2024-01-30T00:57:12;33.35;;;4.42;;
16705;SDS011;8469;60.136;15.180;2024-01-30T00:59:39;17.32;;;4.35;;
16705;SDS011;8469;60.136;15.180;2024-01-30T01:02:07;18.35;;;4.08;;
16705;SDS011;8469;60.136;15.180;2024-01-30T01:07:21;35.58;;;5.05;;
16705;SDS011;8469;60.136;15.180;2024-01-30T01:09:48;57.37;;;5.10;;
16705;SDS011;8469;60.136;15.180;2024-01-30T01:12:15;20.57;;;4.20;;
16705;SDS011;8469;60.136;15.180;2024-01-30T01:14:43;52.30;;;4.85;;
16705;SDS011;8469;60.136;15.180;2024-01-30T01:17:13;54.13;;;4.83;;
16705;SDS011;8469;60.136;15.180;2024-01-30T01:19:43;25.48;;;4.67;;
16705;SDS011;8469;60.136;15.180;2024-01-30T01:22:08;14.10;;;3.97;;
16705;SDS011;8469;60.136;15.180;2024-01-30T01:24:35;49.10;;;4.08;;
16705;SDS011;8469;60.136;15.180;2024-01-30T01:27:03;83.42;;;5.40;;
16705;SDS011;8469;60.136;15.180;2024-01-30T01:29:30;18.65;;;3.83;;
16705;SDS011;8469;60.136;15.180;2024-01-30T01:31:57;76.53;;;4.53;;
16705;SDS011;8469;60.136;15.180;2024-01-30T01:34:25;107.95;;;5.28;;
16705;SDS011;8469;60.136;15.180;2024-01-30T01:36:52;42.08;;;4.12;;
16705;SDS011;8469;60.136;15.180;2024-01-30T01:39:22;81.45;;;4.75;;
16705;SDS011;8469;60.136;15.180;2024-01-30T01:41:50;107.45;;;5.97;;
16705;SDS011;8469;60.136;15.180;2024-01-30T01:44:17;121.17;;;5.70;;
16705;SDS011;8469;60.136;15.180;2024-01-30T01:46:45;87.40;;;5.33;;
16705;SDS011;8469;60.136;15.180;2024-01-30T01:49:13;43.93;;;3.40;;
16705;SDS011;8469;60.136;15.180;2024-01-30T01:51:41;64.62;;;4.03;;
16705;SDS011;8469;60.136;15.180;2024-01-30T01:54:10;44.18;;;3.95;;
16705;SDS011;8469;60.136;15.180;2024-01-30T01:56:38;73.33;;;3.90;;
16705;SDS011;8469;60.136;15.180;2024-01-30T01:59:07;95.95;;;4.50;;
16705;SDS011;8469;60.136;15.180;2024-01-30T02:01:38;60.08;;;3.05;;
16705;SDS011;8469;60.136;15.180;2024-01-30T02:04:07;116.25;;;4.90;;
16705;SDS011;8469;60.136;15.180;2024-01-30T02:06:39;72.90;;;3.70;;
16705;SDS011;8469;60.136;15.180;2024-01-30T02:09:03;81.53;;;4.45;;
16705;SDS011;8469;60.136;15.180;2024-01-30T02:11:31;102.03;;;4.33;;
16705;SDS011;8469;60.136;15.180;2024-01-30T02:14:02;88.72;;;4.67;;
16705;SDS011;8469;60.136;15.180;2024-01-30T02:16:36;45.67;;;3.43;;
16705;SDS011;8469;60.136;15.180;2024-01-30T02:19:03;36.17;;;3.47;;
16705;SDS011;8469;60.136;15.180;2024-01-30T02:21:32;190.88;;;6.62;;
16705;SDS011;8469;60.136;15.180;2024-01-30T02:23:59;148.20;;;5.67;;
16705;SDS011;8469;60.136;15.180;2024-01-30T02:26:27;109.72;;;5.60;;
16705;SDS011;8469;60.136;15.180;2024-01-30T02:28:55;172.62;;;5.90;;
16705;SDS011;8469;60.136;15.180;2024-01-30T02:31:24;85.00;;;4.42;;
16705;SDS011;8469;60.136;15.180;2024-01-30T02:33:51;75.78;;;3.70;;
16705;SDS011;8469;60.136;15.180;2024-01-30T02:36:18;108.97;;;4.97;;
16705;SDS011;8469;60.136;15.180;2024-01-30T02:38:46;131.85;;;5.90;;
16705;SDS011;8469;60.136;15.180;2024-01-30T02:41:14;150.38;;;5.95;;
16705;SDS011;8469;60.136;15.180;2024-01-30T02:43:41;88.07;;;4.60;;
16705;SDS011;8469;60.136;15.180;2024-01-30T02:46:09;75.13;;;4.07;;
16705;SDS011;8469;60.136;15.180;2024-01-30T02:48:36;115.95;;;5.47;;
16705;SDS011;8469;60.136;15.180;2024-01-30T02:51:05;69.33;;;4.30;;
16705;SDS011;8469;60.136;15.180;2024-01-30T02:53:32;50.08;;;4.40;;
16705;SDS011;8469;60.136;15.180;2024-01-30T02:56:00;63.20;;;4.00;;
16705;SDS011;8469;60.136;15.180;2024-01-30T02:58:30;55.55;;;3.65;;
16705;SDS011;8469;60.136;15.180;2024-01-30T03:01:00;93.90;;;5.03;;
16705;SDS011;8469;60.136;15.180;2024-01-30T03:03:27;66.97;;;4.00;;
16705;SDS011;8469;60.136;15.180;2024-01-30T03:05:54;72.90;;;3.55;;
16705;SDS011;8469;60.136;15.180;2024-01-30T03:08:22;90.10;;;4.22;;
16705;SDS011;8469;60.136;15.180;2024-01-30T03:10:49;79.30;;;3.75;;
16705;SDS011;8469;60.136;15.180;2024-01-30T03:13:16;118.93;;;4.37;;
16705;SDS011;8469;60.136;15.180;2024-01-30T03:15:43;92.45;;;4.20;;
16705;SDS011;8469;60.136;15.180;2024-01-30T03:18:11;39.48;;;3.42;;
16705;SDS011;8469;60.136;15.180;2024-01-30T03:20:39;24.63;;;2.92;;
16705;SDS011;8469;60.136;15.180;2024-01-30T03:23:06;57.27;;;3.60;;
16705;SDS011;8469;60.136;15.180;2024-01-30T03:25:33;90.90;;;4.42;;
16705;SDS011;8469;60.136;15.180;2024-01-30T03:28:01;122.53;;;4.90;;
16705;SDS011;8469;60.136;15.180;2024-01-30T03:30:31;129.90;;;5.30;;
16705;SDS011;8469;60.136;15.180;2024-01-30T03:32:58;89.42;;;4.85;;
16705;SDS011;8469;60.136;15.180;2024-01-30T03:35:26;105.05;;;5.58;;
16705;SDS011;8469;60.136;15.180;2024-01-30T03:37:53;25.52;;;3.25;;
16705;SDS011;8469;60.136;15.180;2024-01-30T03:40:24;21.37;;;3.23;;
16705;SDS011;8469;60.136;15.180;2024-01-30T03:42:51;37.30;;;3.60;;
16705;SDS011;8469;60.136;15.180;2024-01-30T03:45:18;35.00;;;3.13;;
16705;SDS011;8469;60.136;15.180;2024-01-30T03:47:46;22.17;;;3.00;;
16705;SDS011;8469;60.136;15.180;2024-01-30T03:50:13;10.72;;;3.37;;
16705;SDS011;8469;60.136;15.180;2024-01-30T03:52:45;9.05;;;2.90;;
16705;SDS011;8469;60.136;15.180;2024-01-30T03:55:09;11.12;;;3.20;;
16705;SDS011;8469;60.136;15.180;2024-01-30T03:57:36;9.28;;;3.25;;
16705;SDS011;8469;60.136;15.180;2024-01-30T04:00:04;25.37;;;3.22;;
16705;SDS011;8469;60.136;15.180;2024-01-30T04:02:31;50.50;;;3.70;;
16705;SDS011;8469;60.136;15.180;2024-01-30T04:04:58;43.78;;;3.42;;
16705;SDS011;8469;60.136;15.180;2024-01-30T04:07:26;13.68;;;2.95;;
16705;SDS011;8469;60.136;15.180;2024-01-30T04:09:53;26.95;;;3.08;;
16705;SDS011;8469;60.136;15.180;2024-01-30T04:12:21;15.70;;;2.92;;
16705;SDS011;8469;60.136;15.180;2024-01-30T04:14:49;15.57;;;3.00;;
16705;SDS011;8469;60.136;15.180;2024-01-30T04:17:16;19.17;;;3.00;;
16705;SDS011;8469;60.136;15.180;2024-01-30T04:19:43;27.70;;;3.12;;
16705;SDS011;8469;60.136;15.180;2024-01-30T04:22:11;19.80;;;2.93;;
16705;SDS011;8469;60.136;15.180;2024-01-30T04:24:43;6.72;;;2.65;;
16705;SDS011;8469;60.136;15.180;2024-01-30T04:27:07;8.80;;;2.70;;
16705;SDS011;8469;60.136;15.180;2024-01-30T04:29:35;7.28;;;3.00;;
16705;SDS011;8469;60.136;15.180;2024-01-30T04:32:02;9.85;;;3.02;;
16705;SDS011;8469;60.136;15.180;2024-01-30T04:34:29;7.93;;;2.57;;
16705;SDS011;8469;60.136;15.180;2024-01-30T04:36:57;6.15;;;2.80;;
16705;SDS011;8469;60.136;15.180;2024-01-30T04:39:26;5.60;;;2.70;;
16705;SDS011;8469;60.136;15.180;2024-01-30T04:41:53;8.85;;;3.02;;
16705;SDS011;8469;60.136;15.180;2024-01-30T04:44:21;11.38;;;3.22;;
16705;SDS011;8469;60.136;15.180;2024-01-30T04:46:48;7.95;;;3.00;;
16705;SDS011;8469;60.136;15.180;2024-01-30T04:49:16;8.28;;;3.27;;
16705;SDS011;8469;60.136;15.180;2024-01-30T04:51:43;9.15;;;3.20;;
16705;SDS011;8469;60.136;15.180;2024-01-30T04:54:10;7.03;;;3.40;;
16705;SDS011;8469;60.136;15.180;2024-01-30T04:56:38;10.90;;;3.50;;
16705;SDS011;8469;60.136;15.180;2024-01-30T04:59:05;8.65;;;3.80;;
16705;SDS011;8469;60.136;15.180;2024-01-30T05:01:37;21.07;;;3.27;;
16705;SDS011;8469;60.136;15.180;2024-01-30T05:04:07;12.58;;;3.45;;
16705;SDS011;8469;60.136;15.180;2024-01-30T05:06:37;12.85;;;3.58;;
16705;SDS011;8469;60.136;15.180;2024-01-30T05:09:04;5.97;;;3.30;;
16705;SDS011;8469;60.136;15.180;2024-01-30T05:11:36;10.20;;;3.00;;
16705;SDS011;8469;60.136;15.180;2024-01-30T05:14:00;9.88;;;3.30;;
16705;SDS011;8469;60.136;15.180;2024-01-30T05:16:28;10.07;;;3.50;;
16705;SDS011;8469;60.136;15.180;2024-01-30T05:18:55;9.43;;;3.08;;
16705;SDS011;8469;60.136;15.180;2024-01-30T05:21:22;5.58;;;2.90;;
16705;SDS011;8469;60.136;15.180;2024-01-30T05:23:50;9.20;;;3.20;;
16705;SDS011;8469;60.136;15.180;2024-01-30T05:26:17;6.45;;;3.27;;
16705;SDS011;8469;60.136;15.180;2024-01-30T05:28:44;12.15;;;3.37;;
16705;SDS011;8469;60.136;15.180;2024-01-30T05:31:12;17.65;;;3.35;;
16705;SDS011;8469;60.136;15.180;2024-01-30T05:33:41;34.57;;;3.87;;
16705;SDS011;8469;60.136;15.180;2024-01-30T05:36:08;93.78;;;4.45;;
16705;SDS011;8469;60.136;15.180;2024-01-30T05:38:37;49.60;;;4.10;;
16705;SDS011;8469;60.136;15.180;2024-01-30T05:41:04;16.87;;;3.50;;
16705;SDS011;8469;60.136;15.180;2024-01-30T05:43:32;16.02;;;3.17;;
16705;SDS011;8469;60.136;15.180;2024-01-30T05:45:59;42.55;;;3.50;;
16705;SDS011;8469;60.136;15.180;2024-01-30T05:48:27;53.63;;;4.92;;
16705;SDS011;8469;60.136;15.180;2024-01-30T05:50:54;36.60;;;4.22;;
16705;SDS011;8469;60.136;15.180;2024-01-30T05:53:22;79.20;;;4.53;;
16705;SDS011;8469;60.136;15.180;2024-01-30T05:55:53;25.43;;;3.67;;
16705;SDS011;8469;60.136;15.180;2024-01-30T05:58:20;11.97;;;3.50;;
16705;SDS011;8469;60.136;15.180;2024-01-30T06:00:48;7.70;;;3.15;;
16705;SDS011;8469;60.136;15.180;2024-01-30T06:03:15;9.85;;;3.98;;
16705;SDS011;8469;60.136;15.180;2024-01-30T06:05:42;9.53;;;4.28;;
16705;SDS011;8469;60.136;15.180;2024-01-30T06:08:10;9.80;;;4.20;;
16705;SDS011;8469;60.136;15.180;2024-01-30T06:10:37;8.30;;;4.00;;
16705;SDS011;8469;60.136;15.180;2024-01-30T06:13:05;8.90;;;4.03;;
16705;SDS011;8469;60.136;15.180;2024-01-30T06:15:32;8.35;;;3.72;;
16705;SDS011;8469;60.136;15.180;2024-01-30T06:18:00;10.60;;;3.87;;
16705;SDS011;8469;60.136;15.180;2024-01-30T06:20:27;8.40;;;3.45;;
16705;SDS011;8469;60.136;15.180;2024-01-30T06:22:54;13.28;;;3.77;;
16705;SDS011;8469;60.136;15.180;2024-01-30T06:25:22;9.47;;;4.07;;
16705;SDS011;8469;60.136;15.180;2024-01-30T06:27:54;10.40;;;3.72;;
16705;SDS011;8469;60.136;15.180;2024-01-30T06:30:18;20.95;;;3.27;;
16705;SDS011;8469;60.136;15.180;2024-01-30T06:32:45;12.03;;;3.17;;
16705;SDS011;8469;60.136;15.180;2024-01-30T06:35:13;13.72;;;3.90;;
16705;SDS011;8469;60.136;15.180;2024-01-30T06:37:40;10.72;;;3.30;;
16705;SDS011;8469;60.136;15.180;2024-01-30T06:40:12;5.83;;;3.07;;
16705;SDS011;8469;60.136;15.180;2024-01-30T06:42:36;9.63;;;3.35;;
16705;SDS011;8469;60.136;15.180;2024-01-30T06:45:03;11.80;;;4.58;;
16705;SDS011;8469;60.136;15.180;2024-01-30T06:47:31;12.50;;;3.77;;
16705;SDS011;8469;60.136;15.180;2024-01-30T06:50:02;7.00;;;3.10;;
16705;SDS011;8469;60.136;15.180;2024-01-30T06:52:29;12.28;;;3.65;;
16705;SDS011;8469;60.136;15.180;2024-01-30T06:54:57;9.13;;;3.27;;
16705;SDS011;8469;60.136;15.180;2024-01-30T06:57:24;7.78;;;3.30;;
16705;SDS011;8469;60.136;15.180;2024-01-30T06:59:53;8.23;;;3.10;;
16705;SDS011;8469;60.136;15.180;2024-01-30T07:02:23;7.00;;;3.25;;
16705;SDS011;8469;60.136;15.180;2024-01-30T07:04:50;8.00;;;3.60;;
16705;SDS011;8469;60.136;15.180;2024-01-30T07:07:18;8.63;;;3.50;;
16705;SDS011;8469;60.136;15.180;2024-01-30T07:09:45;7.25;;;3.00;;
16705;SDS011;8469;60.136;15.180;2024-01-30T07:12:14;5.50;;;2.90;;
16705;SDS011;8469;60.136;15.180;2024-01-30T07:14:41;8.03;;;2.72;;
16705;SDS011;8469;60.136;15.180;2024-01-30T07:17:09;3.30;;;2.50;;
16705;SDS011;8469;60.136;15.180;2024-01-30T07:19:36;4.65;;;2.27;;
16705;SDS011;8469;60.136;15.180;2024-01-30T07:22:03;6.60;;;2.30;;
16705;SDS011;8469;60.136;15.180;2024-01-30T07:24:31;4.20;;;2.22;;
16705;SDS011;8469;60.136;15.180;2024-01-30T07:27:03;4.85;;;2.55;;
16705;SDS011;8469;60.136;15.180;2024-01-30T07:29:27;4.65;;;2.52;;
16705;SDS011;8469;60.136;15.180;2024-01-30T07:31:54;11.00;;;3.72;;
16705;SDS011;8469;60.136;15.180;2024-01-30T07:34:22;11.00;;;4.53;;
16705;SDS011;8469;60.136;15.180;2024-01-30T07:36:49;37.33;;;4.30;;
16705;SDS011;8469;60.136;15.180;2024-01-30T07:39:16;12.75;;;4.00;;
16705;SDS011;8469;60.136;15.180;2024-01-30T07:41:45;10.80;;;3.73;;
16705;SDS011;8469;60.136;15.180;2024-01-30T07:44:12;15.25;;;3.90;;
16705;SDS011;8469;60.136;15.180;2024-01-30T07:46:42;105.27;;;5.35;;
16705;SDS011;8469;60.136;15.180;2024-01-30T07:49:10;11.35;;;3.35;;
16705;SDS011;8469;60.136;15.180;2024-01-30T07:51:38;20.65;;;3.70;;
16705;SDS011;8469;60.136;15.180;2024-01-30T07:54:12;13.23;;;3.53;;
16705;SDS011;8469;60.136;15.180;2024-01-30T07:56:42;13.35;;;4.00;;
16705;SDS011;8469;60.136;15.180;2024-01-30T07:59:09;16.00;;;4.47;;
16705;SDS011;8469;60.136;15.180;2024-01-30T08:01:38;19.73;;;4.40;;
16705;SDS011;8469;60.136;15.180;2024-01-30T08:04:07;27.42;;;4.37;;
16705;SDS011;8469;60.136;15.180;2024-01-30T08:06:35;23.75;;;3.95;;
16705;SDS011;8469;60.136;15.180;2024-01-30T08:09:02;8.53;;;3.57;;
16705;SDS011;8469;60.136;15.180;2024-01-30T08:11:29;14.45;;;3.50;;
16705;SDS011;8469;60.136;15.180;2024-01-30T08:13:57;9.65;;;3.30;;
16705;SDS011;8469;60.136;15.180;2024-01-30T08:16:25;7.03;;;3.08;;
16705;SDS011;8469;60.136;15.180;2024-01-30T08:18:52;12.55;;;3.12;;
16705;SDS011;8469;60.136;15.180;2024-01-30T08:21:21;9.10;;;3.10;;
16705;SDS011;8469;60.136;15.180;2024-01-30T08:23:48;7.97;;;3.20;;
16705;SDS011;8469;60.136;15.180;2024-01-30T08:26:15;5.50;;;3.10;;
16705;SDS011;8469;60.136;15.180;2024-01-30T08:28:44;4.62;;;2.92;;
16705;SDS011;8469;60.136;15.180;2024-01-30T08:31:11;6.53;;;3.52;;
16705;SDS011;8469;60.136;15.180;2024-01-30T08:33:38;4.67;;;2.52;;
16705;SDS011;8469;60.136;15.180;2024-01-30T08:36:08;4.33;;;2.50;;
16705;SDS011;8469;60.136;15.180;2024-01-30T08:38:35;3.83;;;2.27;;
16705;SDS011;8469;60.136;15.180;2024-01-30T08:41:02;5.97;;;2.17;;
16705;SDS011;8469;60.136;15.180;2024-01-30T08:43:29;2.90;;;1.90;;
16705;SDS011;8469;60.136;15.180;2024-01-30T08:45:59;3.83;;;2.20;;
16705;SDS011;8469;60.136;15.180;2024-01-30T08:48:26;5.50;;;2.17;;
16705;SDS011;8469;60.136;15.180;2024-01-30T08:50:54;6.08;;;2.20;;
16705;SDS011;8469;60.136;15.180;2024-01-30T08:53:21;5.28;;;2.27;;
16705;SDS011;8469;60.136;15.180;2024-01-30T08:55:48;6.22;;;2.65;;
16705;SDS011;8469;60.136;15.180;2024-01-30T08:58:16;6.35;;;2.87;;
16705;SDS011;8469;60.136;15.180;2024-01-30T09:00:44;5.42;;;2.70;;
16705;SDS011;8469;60.136;15.180;2024-01-30T09:03:12;4.60;;;2.40;;
16705;SDS011;8469;60.136;15.180;2024-01-30T09:05:39;4.08;;;2.05;;
16705;SDS011;8469;60.136;15.180;2024-01-30T09:08:07;5.23;;;2.50;;
16705;SDS011;8469;60.136;15.180;2024-01-30T09:10:34;4.53;;;2.30;;
16705;SDS011;8469;60.136;15.180;2024-01-30T09:13:02;4.47;;;2.33;;
16705;SDS011;8469;60.136;15.180;2024-01-30T09:15:29;5.55;;;2.30;;
16705;SDS011;8469;60.136;15.180;2024-01-30T09:17:57;4.65;;;1.98;;
16705;SDS011;8469;60.136;15.180;2024-01-30T09:20:24;3.15;;;2.02;;
16705;SDS011;8469;60.136;15.180;2024-01-30T09:22:56;8.53;;;2.40;;
16705;SDS011;8469;60.136;15.180;2024-01-30T09:25:20;4.53;;;2.30;;
16705;SDS011;8469;60.136;15.180;2024-01-30T09:27:48;9.93;;;2.72;;
16705;SDS011;8469;60.136;15.180;2024-01-30T09:30:15;3.47;;;2.05;;
16705;SDS011;8469;60.136;15.180;2024-01-30T09:32:42;2.85;;;2.10;;
16705;SDS011;8469;60.136;15.180;2024-01-30T09:35:15;3.87;;;2.00;;
16705;SDS011;8469;60.136;15.180;2024-01-30T09:37:40;5.83;;;2.20;;
16705;SDS011;8469;60.136;15.180;2024-01-30T09:40:08;5.55;;;2.50;;
16705;SDS011;8469;60.136;15.180;2024-01-30T09:42:35;4.53;;;2.08;;
16705;SDS011;8469;60.136;15.180;2024-01-30T09:45:05;5.05;;;2.30;;
16705;SDS011;8469;60.136;15.180;2024-01-30T09:47:39;3.27;;;2.08;;
16705;SDS011;8469;60.136;15.180;2024-01-30T09:50:04;3.17;;;1.80;;
16705;SDS011;8469;60.136;15.180;2024-01-30T09:52:33;4.85;;;1.95;;
16705;SDS011;8469;60.136;15.180;2024-01-30T09:55:01;5.20;;;1.92;;
16705;SDS011;8469;60.136;15.180;2024-01-30T09:57:29;7.67;;;2.30;;
16705;SDS011;8469;60.136;15.180;2024-01-30T09:59:55;5.40;;;1.87;;
16705;SDS011;8469;60.136;15.180;2024-01-30T10:02:27;4.37;;;1.95;;
16705;SDS011;8469;60.136;15.180;2024-01-30T10:04:54;4.20;;;1.83;;
16705;SDS011;8469;60.136;15.180;2024-01-30T10:07:21;7.15;;;2.17;;
16705;SDS011;8469;60.136;15.180;2024-01-30T10:09:49;3.92;;;2.12;;
16705;SDS011;8469;60.136;15.180;2024-01-30T10:12:16;3.05;;;1.90;;
16705;SDS011;8469;60.136;15.180;2024-01-30T10:14:44;7.92;;;2.00;;
16705;SDS011;8469;60.136;15.180;2024-01-30T10:17:16;4.60;;;2.23;;
16705;SDS011;8469;60.136;15.180;2024-01-30T10:19:41;6.12;;;2.12;;
16705;SDS011;8469;60.136;15.180;2024-01-30T10:22:09;3.50;;;2.10;;
16705;SDS011;8469;60.136;15.180;2024-01-30T10:24:36;4.90;;;2.30;;
16705;SDS011;8469;60.136;15.180;2024-01-30T10:27:05;5.10;;;2.70;;
16705;SDS011;8469;60.136;15.180;2024-01-30T10:29:33;5.85;;;2.67;;
16705;SDS011;8469;60.136;15.180;2024-01-30T10:32:01;4.53;;;2.72;;
16705;SDS011;8469;60.136;15.180;2024-01-30T10:34:29;6.70;;;2.80;;
16705;SDS011;8469;60.136;15.180;2024-01-30T10:37:08;5.83;;;2.70;;
16705;SDS011;8469;60.136;15.180;2024-01-30T10:39:42;5.58;;;2.65;;
16705;SDS011;8469;60.136;15.180;2024-01-30T10:42:11;4.25;;;2.25;;
16705;SDS011;8469;60.136;15.180;2024-01-30T10:44:39;3.60;;;2.42;;
16705;SDS011;8469;60.136;15.180;2024-01-30T10:47:09;6.85;;;2.50;;
16705;SDS011;8469;60.136;15.180;2024-01-30T10:49:36;6.40;;;2.52;;
16705;SDS011;8469;60.136;15.180;2024-01-30T10:52:05;5.05;;;2.58;;
16705;SDS011;8469;60.136;15.180;2024-01-30T10:54:33;5.55;;;2.67;;
16705;SDS011;8469;60.136;15.180;2024-01-30T10:57:03;7.70;;;2.92;;
16705;SDS011;8469;60.136;15.180;2024-01-30T10:59:32;6.20;;;2.92;;
16705;SDS011;8469;60.136;15.180;2024-01-30T11:02:00;7.87;;;2.87;;
16705;SDS011;8469;60.136;15.180;2024-01-30T11:04:27;5.60;;;2.37;;
16705;SDS011;8469;60.136;15.180;2024-01-30T11:06:54;6.15;;;2.50;;
16705;SDS011;8469;60.136;15.180;2024-01-30T11:09:22;5.20;;;2.80;;
16705;SDS011;8469;60.136;15.180;2024-01-30T11:11:55;5.55;;;2.60;;
16705;SDS011;8469;60.136;15.180;2024-01-30T11:14:24;6.28;;;2.98;;
16705;SDS011;8469;60.136;15.180;2024-01-30T11:16:52;6.78;;;2.87;;
16705;SDS011;8469;60.136;15.180;2024-01-30T11:19:23;8.23;;;3.00;;
16705;SDS011;8469;60.136;15.180;2024-01-30T11:21:53;5.45;;;2.92;;
16705;SDS011;8469;60.136;15.180;2024-01-30T11:24:23;7.47;;;3.20;;
16705;SDS011;8469;60.136;15.180;2024-01-30T11:26:59;7.17;;;3.20;;
16705;SDS011;8469;60.136;15.180;2024-01-30T11:29:19;7.60;;;3.27;;
16705;SDS011;8469;60.136;15.180;2024-01-30T11:31:53;7.15;;;3.22;;
16705;SDS011;8469;60.136;15.180;2024-01-30T11:34:21;6.20;;;3.10;;
16705;SDS011;8469;60.136;15.180;2024-01-30T11:36:52;6.05;;;2.90;;
16705;SDS011;8469;60.136;15.180;2024-01-30T11:39:21;4.92;;;2.60;;
16705;SDS011;8469;60.136;15.180;2024-01-30T11:41:50;8.73;;;2.77;;
16705;SDS011;8469;60.136;15.180;2024-01-30T11:44:18;5.30;;;2.50;;
16705;SDS011;8469;60.136;15.180;2024-01-30T11:46:51;6.25;;;2.37;;
16705;SDS011;8469;60.136;15.180;2024-01-30T11:49:18;7.40;;;2.70;;
16705;SDS011;8469;60.136;15.180;2024-01-30T11:51:45;4.40;;;2.30;;
16705;SDS011;8469;60.136;15.180;2024-01-30T11:54:15;5.05;;;2.70;;
16705;SDS011;8469;60.136;15.180;2024-01-30T11:56:45;8.65;;;3.00;;
16705;SDS011;8469;60.136;15.180;2024-01-30T11:59:12;5.53;;;2.60;;
16705;SDS011;8469;60.136;15.180;2024-01-30T12:01:40;3.42;;;2.58;;
16705;SDS011;8469;60.136;15.180;2024-01-30T12:04:08;4.87;;;3.10;;
16705;SDS011;8469;60.136;15.180;2024-01-30T12:06:36;10.00;;;3.22;;
16705;SDS011;8469;60.136;15.180;2024-01-30T12:09:05;7.03;;;3.15;;
16705;SDS011;8469;60.136;15.180;2024-01-30T12:11:44;6.83;;;3.00;;
16705;SDS011;8469;60.136;15.180;2024-01-30T12:14:07;5.92;;;3.00;;
16705;SDS011;8469;60.136;15.180;2024-01-30T12:16:33;6.50;;;3.15;;
16705;SDS011;8469;60.136;15.180;2024-01-30T12:19:03;9.03;;;3.40;;
16705;SDS011;8469;60.136;15.180;2024-01-30T12:21:38;7.55;;;3.20;;
16705;SDS011;8469;60.136;15.180;2024-01-30T12:24:02;8.63;;;3.35;;
16705;SDS011;8469;60.136;15.180;2024-01-30T12:26:30;8.58;;;3.62;;
16705;SDS011;8469;60.136;15.180;2024-01-30T12:28:57;8.30;;;3.37;;
16705;SDS011;8469;60.136;15.180;2024-01-30T12:31:27;5.85;;;2.90;;
16705;SDS011;8469;60.136;15.180;2024-01-30T12:33:55;12.68;;;3.40;;
16705;SDS011;8469;60.136;15.180;2024-01-30T12:36:22;9.08;;;3.50;;
16705;SDS011;8469;60.136;15.180;2024-01-30T12:38:50;8.13;;;3.17;;
16705;SDS011;8469;60.136;15.180;2024-01-30T12:41:17;9.03;;;3.37;;
16705;SDS011;8469;60.136;15.180;2024-01-30T12:43:46;9.83;;;3.70;;
16705;SDS011;8469;60.136;15.180;2024-01-30T12:46:16;10.95;;;3.70;;
16705;SDS011;8469;60.136;15.180;2024-01-30T12:48:43;13.45;;;3.60;;
16705;SDS011;8469;60.136;15.180;2024-01-30T12:51:10;8.45;;;3.47;;
16705;SDS011;8469;60.136;15.180;2024-01-30T12:53:41;8.95;;;3.30;;
16705;SDS011;8469;60.136;15.180;2024-01-30T12:56:06;7.70;;;2.93;;
16705;SDS011;8469;60.136;15.180;2024-01-30T12:58:33;11.45;;;3.40;;
16705;SDS011;8469;60.136;15.180;2024-01-30T13:01:01;8.08;;;3.22;;
16705;SDS011;8469;60.136;15.180;2024-01-30T13:03:28;8.10;;;3.20;;
16705;SDS011;8469;60.136;15.180;2024-01-30T13:05:56;14.05;;;3.62;;
16705;SDS011;8469;60.136;15.180;2024-01-30T13:08:23;8.85;;;3.30;;
16705;SDS011;8469;60.136;15.180;2024-01-30T13:10:50;8.50;;;3.77;;
16705;SDS011;8469;60.136;15.180;2024-01-30T13:13:24;6.12;;;3.20;;
16705;SDS011;8469;60.136;15.180;2024-01-30T13:15:48;9.33;;;3.90;;
16705;SDS011;8469;60.136;15.180;2024-01-30T13:18:15;7.75;;;3.47;;
16705;SDS011;8469;60.136;15.180;2024-01-30T13:20:43;8.75;;;3.75;;
16705;SDS011;8469;60.136;15.180;2024-01-30T13:23:10;10.60;;;3.80;;
16705;SDS011;8469;60.136;15.180;2024-01-30T13:25:38;11.60;;;4.05;;
16705;SDS011;8469;60.136;15.180;2024-01-30T13:28:05;8.08;;;3.22;;
16705;SDS011;8469;60.136;15.180;2024-01-30T13:30:32;8.30;;;3.50;;
16705;SDS011;8469;60.136;15.180;2024-01-30T13:33:00;9.00;;;3.37;;
16705;SDS011;8469;60.136;15.180;2024-01-30T13:35:27;11.28;;;3.40;;
16705;SDS011;8469;60.136;15.180;2024-01-30T13:37:54;7.15;;;2.80;;
16705;SDS011;8469;60.136;15.180;2024-01-30T13:40:25;9.50;;;2.67;;
16705;SDS011;8469;60.136;15.180;2024-01-30T13:42:52;5.22;;;2.58;;
16705;SDS011;8469;60.136;15.180;2024-01-30T13:45:20;6.78;;;2.67;;
16705;SDS011;8469;60.136;15.180;2024-01-30T13:47:47;9.93;;;3.10;;
16705;SDS011;8469;60.136;15.180;2024-01-30T13:50:14;6.28;;;2.87;;
16705;SDS011;8469;60.136;15.180;2024-01-30T13:52:47;8.28;;;2.67;;
16705;SDS011;8469;60.136;15.180;2024-01-30T13:55:11;15.58;;;3.02;;
16705;SDS011;8469;60.136;15.180;2024-01-30T13:57:39;10.82;;;3.02;;
16705;SDS011;8469;60.136;15.180;2024-01-30T14:00:09;12.23;;;2.92;;
16705;SDS011;8469;60.136;15.180;2024-01-30T14:02:37;8.80;;;3.00;;
16705;SDS011;8469;60.136;15.180;2024-01-30T14:05:06;7.97;;;2.90;;
16705;SDS011;8469;60.136;15.180;2024-01-30T14:07:35;8.63;;;2.83;;
16705;SDS011;8469;60.136;15.180;2024-01-30T14:10:02;8.10;;;3.00;;
16705;SDS011;8469;60.136;15.180;2024-01-30T14:12:30;6.80;;;2.85;;
16705;SDS011;8469;60.136;15.180;2024-01-30T14:14:57;7.58;;;2.90;;
16705;SDS011;8469;60.136;15.180;2024-01-30T14:17:24;8.55;;;2.87;;
16705;SDS011;8469;60.136;15.180;2024-01-30T14:19:52;6.78;;;3.20;;
16705;SDS011;8469;60.136;15.180;2024-01-30T14:22:19;5.60;;;3.00;;
16705;SDS011;8469;60.136;15.180;2024-01-30T14:24:46;13.10;;;3.60;;
16705;SDS011;8469;60.136;15.180;2024-01-30T14:27:14;12.58;;;3.22;;
16705;SDS011;8469;60.136;15.180;2024-01-30T14:29:41;7.37;;;3.12;;
16705;SDS011;8469;60.136;15.180;2024-01-30T14:32:09;7.45;;;2.80;;
16705;SDS011;8469;60.136;15.180;2024-01-30T14:34:37;12.78;;;3.50;;
16705;SDS011;8469;60.136;15.180;2024-01-30T14:37:05;7.97;;;3.12;;
16705;SDS011;8469;60.136;15.180;2024-01-30T14:39:32;9.45;;;3.20;;
16705;SDS011;8469;60.136;15.180;2024-01-30T14:42:00;5.80;;;2.98;;
16705;SDS011;8469;60.136;15.180;2024-01-30T14:44:27;6.57;;;3.10;;
16705;SDS011;8469;60.136;15.180;2024-01-30T14:46:57;6.65;;;3.20;;